Time;durP1;ratioP1;P1;durP2;ratioP2;P2;SDS_P1;SDS_P2;PMS_P1;PMS_P2;Temp;Humidity;BMP_temperature;BMP_pressure;BME280_temperature;BME280_humidity;BME280_pressure;Samples;Min_cycle;Max_cycle;Signal;HPM_P1;HPM_P2
2022/01/04 00:00:22;;;;;;;2.85;0.70;;;;;;;14.49;42.05;94587.84;5021381;28;20030;-65
2022/01/04 00:02:48;;;;;;;2.28;0.70;;;;;;;14.98;41.14;94582.22;5030580;28;20075;-64
2022/01/04 00:05:13;;;;;;;2.40;0.90;;;;;;;14.35;42.73;94600.03;5030687;28;20621;-66
2022/01/04 00:07:39;;;;;;;1.92;0.70;;;;;;;14.94;41.32;94578.66;5030427;28;20025;-64
2022/01/04 00:10:07;;;;;;;1.95;0.60;;;;;;;15.33;40.88;94578.84;5028042;28;20021;-65
2022/01/04 00:15:17;;;;;;;1.55;0.80;;;;;;;15.00;41.25;94571.19;5012778;28;20037;-64
2022/01/04 00:17:43;;;;;;;1.00;0.80;;;;;;;15.19;40.78;94551.72;5010461;28;20034;-64
2022/01/04 00:20:08;;;;;;;1.40;0.80;;;;;;;14.82;41.33;94589.47;4992291;28;20029;-65
2022/01/04 00:22:34;;;;;;;1.00;0.57;;;;;;;15.08;40.87;94538.84;5010335;28;20049;-64
2022/01/04 00:24:59;;;;;;;1.65;0.65;;;;;;;15.19;39.93;94495.44;5010012;28;20551;-65
2022/01/04 00:27:25;;;;;;;1.15;0.70;;;;;;;14.80;39.83;94498.00;5024386;28;20025;-63
2022/01/04 00:29:50;;;;;;;0.98;0.50;;;;;;;15.31;39.27;94508.75;5024966;28;20033;-63
2022/01/04 00:32:16;;;;;;;2.17;0.70;;;;;;;14.95;40.28;94564.19;5010212;28;20035;-64
2022/01/04 00:34:42;;;;;;;2.00;0.70;;;;;;;15.21;39.69;94506.63;5010089;28;20022;-65
2022/01/04 00:37:08;;;;;;;2.45;0.82;;;;;;;14.51;40.61;94497.28;5009988;28;20383;-65
2022/01/04 00:39:33;;;;;;;1.83;0.80;;;;;;;14.38;40.95;94493.09;5009439;28;20025;-64
2022/01/04 00:41:59;;;;;;;2.10;0.55;;;;;;;14.53;40.54;94487.00;5001620;28;20049;-65
2022/01/04 00:44:25;;;;;;;2.95;0.50;;;;;;;14.77;40.08;94471.91;5022297;28;20399;-63
2022/01/04 00:46:50;;;;;;;0.73;0.47;;;;;;;15.45;38.91;94492.97;5028017;28;20079;-65
2022/01/04 00:49:17;;;;;;;1.35;0.55;;;;;;;15.66;37.87;94457.06;5028994;28;20029;-66
2022/01/04 00:51:45;;;;;;;1.10;0.50;;;;;;;15.50;37.67;94404.25;5029798;28;20479;-66
2022/01/04 00:54:13;;;;;;;2.00;0.60;;;;;;;14.77;39.09;94458.53;5012159;28;20056;-64
2022/01/04 00:56:39;;;;;;;1.60;0.80;;;;;;;14.92;38.86;94433.63;5006903;28;20029;-63
2022/01/04 00:59:05;;;;;;;1.25;0.70;;;;;;;15.59;38.00;94474.53;5025047;28;20435;-64
2022/01/04 01:01:30;;;;;;;1.85;0.65;;;;;;;16.07;37.44;94496.59;5009877;28;20172;-65
2022/01/04 01:03:56;;;;;;;0.50;0.50;;;;;;;16.22;37.03;94500.28;4992285;28;20044;-63
2022/01/04 01:06:22;;;;;;;1.92;0.93;;;;;;;16.37;36.54;94472.59;5009898;28;20030;-64
2022/01/04 01:08:48;;;;;;;1.27;0.60;;;;;;;15.59;36.75;94422.81;4991837;28;20022;-64
2022/01/04 01:11:13;;;;;;;3.35;0.50;;;;;;;15.82;37.18;94484.59;5014201;28;20044;-64
2022/01/04 01:13:39;;;;;;;0.70;0.60;;;;;;;15.73;37.11;94431.16;5027218;28;20021;-64
2022/01/04 01:16:05;;;;;;;1.55;0.77;;;;;;;16.15;36.78;94484.06;5009618;28;20036;-65
2022/01/04 01:18:30;;;;;;;1.38;0.70;;;;;;;15.96;36.79;94458.03;4991897;28;20025;-64
2022/01/04 01:20:56;;;;;;;2.03;1.23;;;;;;;16.14;36.85;94479.84;5009070;28;20018;-64
2022/01/04 01:23:23;;;;;;;2.25;0.70;;;;;;;16.03;36.53;94466.25;4992071;28;20040;-63
2022/01/04 01:25:49;;;;;;;0.70;0.52;;;;;;;15.58;37.54;94472.19;5010412;28;20076;-64
2022/01/04 01:28:14;;;;;;;1.98;0.80;;;;;;;14.81;38.67;94411.22;5026196;28;20038;-64
2022/01/04 01:30:42;;;;;;;2.28;0.70;;;;;;;15.38;37.43;94487.47;5020517;28;20427;-63
2022/01/04 01:33:08;;;;;;;0.80;0.50;;;;;;;15.01;37.76;94369.97;5029156;28;20057;-64
2022/01/04 01:35:35;;;;;;;1.48;0.40;;;;;;;15.28;37.87;94475.38;5029010;28;20021;-64
2022/01/04 01:38:01;;;;;;;1.80;0.55;;;;;;;14.85;38.82;94430.03;5029038;28;20021;-64
2022/01/04 01:40:30;;;;;;;1.67;0.70;;;;;;;14.49;39.51;94429.19;5027184;28;20076;-64
2022/01/04 01:43:01;;;;;;;1.10;0.68;;;;;;;14.45;39.14;94390.84;5025609;28;20025;-64
2022/01/04 01:45:27;;;;;;;2.33;0.60;;;;;;;14.65;39.12;94379.09;5020755;28;20022;-63
2022/01/04 01:47:53;;;;;;;1.67;0.50;;;;;;;14.73;39.42;94412.94;5028935;28;20087;-65
2022/01/04 01:50:19;;;;;;;0.95;0.57;;;;;;;14.87;38.66;94380.34;5028553;28;20057;-64
2022/01/04 01:52:47;;;;;;;1.75;0.80;;;;;;;15.44;38.64;94383.44;5028639;28;20424;-64
2022/01/04 01:55:15;;;;;;;0.95;0.75;;;;;;;15.75;38.07;94393.28;5029226;28;20030;-63
2022/01/04 01:57:40;;;;;;;1.35;0.60;;;;;;;14.78;39.37;94358.34;5023872;28;20395;-65
2022/01/04 02:00:08;;;;;;;0.50;0.50;;;;;;;16.00;37.55;94401.78;5020216;28;20024;-64
2022/01/04 02:02:34;;;;;;;1.55;0.50;;;;;;;16.19;37.38;94414.38;5028869;28;20104;-64
2022/01/04 02:05:01;;;;;;;0.95;0.70;;;;;;;15.56;37.82;94335.84;5011389;28;20120;-64
2022/01/04 02:07:27;;;;;;;0.73;0.60;;;;;;;15.24;37.78;94323.72;5028734;28;20491;-64
2022/01/04 02:10:03;;;;;;;1.83;0.60;;;;;;;15.98;36.63;94359.22;5028227;28;20033;-65
2022/01/04 02:12:34;;;;;;;0.88;0.47;;;;;;;15.94;37.34;94347.66;5007864;28;20395;-64
2022/01/04 02:15:00;;;;;;;1.53;0.57;;;;;;;16.18;37.51;94380.66;5019676;28;20056;-65
2022/01/04 02:17:26;;;;;;;1.08;0.50;;;;;;;15.55;37.74;94347.69;5028733;28;20065;-64
2022/01/04 02:19:55;;;;;;;1.42;0.60;;;;;;;15.70;37.69;94350.66;5028123;28;20494;-64
2022/01/04 02:22:21;;;;;;;0.52;0.50;;;;;;;16.19;36.84;94345.41;5011581;28;20063;-65
2022/01/04 02:24:47;;;;;;;1.10;0.50;;;;;;;15.78;37.12;94304.88;5031680;28;20033;-64
2022/01/04 02:27:14;;;;;;;3.75;0.60;;;;;;;15.74;37.49;94301.34;5029669;28;20037;-64
2022/01/04 02:29:39;;;;;;;2.38;0.73;;;;;;;15.59;37.92;94307.53;5028847;28;20033;-63
2022/01/04 02:32:05;;;;;;;1.75;0.68;;;;;;;16.72;36.55;94342.00;5020396;28;20495;-64
2022/01/04 02:34:31;;;;;;;1.23;0.65;;;;;;;15.98;37.34;94348.50;5012366;28;20034;-64
2022/01/04 02:36:57;;;;;;;0.43;0.40;;;;;;;16.11;36.60;94261.31;5012310;28;20033;-63
2022/01/04 02:39:23;;;;;;;2.30;0.73;;;;;;;16.14;37.33;94326.91;5011734;28;20053;-65
2022/01/04 02:41:48;;;;;;;0.80;0.55;;;;;;;16.73;36.49;94276.41;5013302;28;20073;-64
2022/01/04 02:44:14;;;;;;;1.13;0.63;;;;;;;16.94;36.53;94274.03;5011698;28;20021;-64
2022/01/04 02:46:39;;;;;;;1.08;0.57;;;;;;;16.50;37.22;94290.66;5006093;28;20490;-63
2022/01/04 02:49:04;;;;;;;1.20;0.60;;;;;;;16.59;36.84;94229.44;5013493;28;20049;-64
2022/01/04 02:51:30;;;;;;;1.10;0.63;;;;;;;16.76;36.82;94275.72;5031957;28;20049;-64
2022/01/04 02:53:55;;;;;;;1.15;0.40;;;;;;;16.48;37.24;94259.94;5013862;28;20029;-63
2022/01/04 02:56:21;;;;;;;0.70;0.70;;;;;;;15.96;36.98;94181.00;5025960;28;20034;-64
2022/01/04 02:58:46;;;;;;;0.73;0.60;;;;;;;16.56;36.56;94219.41;5026392;28;20117;-65
2022/01/04 03:01:12;;;;;;;0.75;0.60;;;;;;;16.46;37.20;94264.91;5005509;28;20056;-63
2022/01/04 03:03:37;;;;;;;0.82;0.30;;;;;;;15.81;37.75;94190.75;5031427;28;20044;-64
2022/01/04 03:06:03;;;;;;;1.23;0.38;;;;;;;15.99;38.34;94266.91;5030539;28;20056;-64
2022/01/04 03:08:29;;;;;;;0.60;0.40;;;;;;;16.08;38.11;94253.25;5031104;28;20113;-65
2022/01/04 03:10:54;;;;;;;0.38;0.35;;;;;;;16.61;37.28;94242.50;5029473;28;20040;-65
2022/01/04 03:13:20;;;;;;;0.40;0.40;;;;;;;16.40;36.98;94232.25;5006510;28;20029;-65
2022/01/04 03:15:46;;;;;;;0.30;0.30;;;;;;;16.77;36.74;94245.03;5021928;28;20121;-65
2022/01/04 03:18:12;;;;;;;0.40;0.40;;;;;;;16.23;37.68;94197.91;5013414;28;20463;-66
2022/01/04 03:20:37;;;;;;;0.55;0.40;;;;;;;16.01;37.91;94219.03;5013513;28;20025;-65
2022/01/04 03:23:03;;;;;;;1.08;0.60;;;;;;;16.91;37.23;94229.09;5013558;28;20033;-65
2022/01/04 03:25:29;;;;;;;1.02;0.57;;;;;;;16.34;37.60;94210.31;5031518;28;20472;-65
2022/01/04 03:27:54;;;;;;;0.82;0.30;;;;;;;16.62;37.71;94214.50;5005376;28;20041;-65
2022/01/04 03:30:20;;;;;;;3.05;0.70;;;;;;;16.23;37.80;94171.06;5023444;28;20057;-64
2022/01/04 03:32:45;;;;;;;2.25;0.52;;;;;;;16.59;37.61;94205.28;5028879;28;20089;-64
2022/01/04 03:35:12;;;;;;;0.45;0.45;;;;;;;15.91;38.63;94206.22;5030462;28;20123;-65
2022/01/04 03:37:37;;;;;;;0.98;0.60;;;;;;;16.01;38.38;94192.19;5030994;28;20030;-65
2022/01/04 03:40:05;;;;;;;0.65;0.43;;;;;;;16.33;38.13;94190.00;5030263;28;20032;-65
2022/01/04 03:42:30;;;;;;;1.13;0.60;;;;;;;15.93;38.67;94168.34;5006743;28;20099;-65
2022/01/04 03:44:56;;;;;;;1.02;0.43;;;;;;;16.27;38.11;94156.53;5027289;28;20418;-65
2022/01/04 03:47:21;;;;;;;0.50;0.43;;;;;;;16.06;39.00;94151.66;5025141;28;20030;-65
2022/01/04 03:49:47;;;;;;;1.05;0.45;;;;;;;15.76;39.30;94129.38;5030367;28;20057;-65
2022/01/04 03:52:12;;;;;;;0.60;0.60;;;;;;;16.23;38.98;94142.31;5030655;28;20037;-65
2022/01/04 03:54:38;;;;;;;0.68;0.50;;;;;;;16.23;38.76;94152.28;5030670;28;20025;-65
2022/01/04 03:57:03;;;;;;;1.83;0.95;;;;;;;15.23;40.33;94105.19;5006600;28;20475;-65
2022/01/04 03:59:29;;;;;;;1.55;0.55;;;;;;;15.71;39.98;94133.13;5009829;28;20082;-65
2022/01/04 04:01:54;;;;;;;1.58;0.90;;;;;;;16.15;38.38;94088.91;5022565;28;20028;-65
2022/01/04 04:04:19;;;;;;;1.02;0.60;;;;;;;16.67;37.76;94114.84;5013203;28;20034;-65
2022/01/04 04:06:46;;;;;;;1.23;0.65;;;;;;;16.46;38.26;94111.91;5012658;28;20082;-64
2022/01/04 04:09:12;;;;;;;0.65;0.30;;;;;;;15.83;39.02;94073.19;5012029;28;20498;-65
2022/01/04 04:11:37;;;;;;;1.45;0.70;;;;;;;16.25;38.07;94069.50;5007243;28;20109;-64
2022/01/04 04:14:02;;;;;;;1.25;0.40;;;;;;;16.50;37.42;94035.66;5027694;28;20680;-64
2022/01/04 04:16:28;;;;;;;2.75;0.60;;;;;;;16.74;37.68;94068.53;5021791;28;20399;-65
2022/01/04 04:18:53;;;;;;;1.52;0.40;;;;;;;16.94;38.13;94088.69;5029741;28;20364;-64
2022/01/04 04:21:18;;;;;;;2.10;0.82;;;;;;;17.15;37.92;94071.97;5029974;28;20018;-64
2022/01/04 04:23:44;;;;;;;1.65;0.40;;;;;;;16.99;37.86;94080.25;5012516;28;20108;-65
2022/01/04 04:26:09;;;;;;;0.93;0.55;;;;;;;17.37;37.86;94084.44;5011276;28;20021;-65
2022/01/04 04:28:35;;;;;;;0.68;0.50;;;;;;;17.44;37.79;94066.81;5023727;28;20035;-64
2022/01/04 04:31:03;;;;;;;1.75;0.50;;;;;;;17.60;38.26;94078.06;5020978;28;20423;-65
2022/01/04 04:33:28;;;;;;;2.22;0.70;;;;;;;17.40;38.48;94039.91;5012070;28;20064;-64
2022/01/04 04:35:53;;;;;;;1.00;0.90;;;;;;;17.76;38.65;94080.50;5029970;28;20052;-64
2022/01/04 04:38:19;;;;;;;0.85;0.77;;;;;;;17.76;39.23;94086.69;5029394;28;20025;-65
2022/01/04 04:40:45;;;;;;;1.92;0.57;;;;;;;17.63;39.12;94083.47;5029357;28;20032;-65
2022/01/04 04:43:11;;;;;;;1.00;0.63;;;;;;;17.14;40.26;94051.59;5023961;28;20476;-65
2022/01/04 04:45:36;;;;;;;1.27;0.68;;;;;;;17.06;40.66;94050.03;5002957;28;20033;-65
2022/01/04 04:48:02;;;;;;;3.08;0.60;;;;;;;17.21;40.57;94059.75;5029020;28;20026;-64
2022/01/04 04:50:27;;;;;;;1.77;0.70;;;;;;;16.89;40.29;94005.75;5011609;28;20017;-65
2022/01/04 04:52:53;;;;;;;1.30;0.80;;;;;;;16.85;39.93;94008.41;5011838;28;20076;-64
2022/01/04 04:55:18;;;;;;;1.38;1.00;;;;;;;16.69;40.18;94012.47;5029677;28;20026;-64
2022/01/04 04:57:44;;;;;;;1.13;0.90;;;;;;;17.00;39.89;94054.19;5017449;28;20037;-64
2022/01/04 05:00:10;;;;;;;1.10;0.60;;;;;;;16.51;40.02;94001.53;5023530;28;20465;-65
2022/01/04 05:02:37;;;;;;;0.65;0.60;;;;;;;16.82;40.15;94049.41;5026035;28;20056;-64
2022/01/04 05:05:02;;;;;;;2.38;0.93;;;;;;;16.64;40.12;94021.63;5029335;28;20033;-64
2022/01/04 05:07:28;;;;;;;1.35;0.77;;;;;;;16.77;39.79;94040.94;5011702;28;20026;-65
2022/01/04 05:09:53;;;;;;;0.93;0.80;;;;;;;16.78;40.46;94043.22;5011076;28;20108;-65
2022/01/04 05:12:18;;;;;;;0.93;0.70;;;;;;;16.50;40.05;94013.41;5025968;28;20380;-65
2022/01/04 05:14:46;;;;;;;1.40;0.70;;;;;;;16.63;40.14;94034.28;5008129;28;20064;-64
2022/01/04 05:17:13;;;;;;;2.60;0.75;;;;;;;16.64;40.25;94046.53;5004525;28;20056;-65
2022/01/04 05:19:39;;;;;;;1.20;0.90;;;;;;;16.57;40.11;94041.09;5028689;28;20040;-65
2022/01/04 05:22:05;;;;;;;1.90;1.00;;;;;;;16.40;40.85;94017.53;5011571;28;20033;-65
2022/01/04 05:24:30;;;;;;;1.60;1.05;;;;;;;16.14;40.65;93975.47;5029386;28;20026;-65
2022/01/04 05:26:55;;;;;;;1.75;1.00;;;;;;;16.16;40.97;93986.59;5026329;28;20018;-64
2022/01/04 05:29:23;;;;;;;2.10;0.98;;;;;;;16.05;40.88;93975.75;5025932;28;20029;-64
2022/01/04 05:31:49;;;;;;;2.47;0.90;;;;;;;16.36;41.03;94022.09;5003195;28;20029;-64
2022/01/04 05:34:14;;;;;;;3.47;1.15;;;;;;;15.62;41.40;93909.38;5029233;28;20396;-64
2022/01/04 05:36:40;;;;;;;1.98;0.90;;;;;;;16.28;41.78;94009.75;5029069;28;20064;-64
2022/01/04 05:39:05;;;;;;;2.75;0.80;;;;;;;16.01;41.82;93982.97;5010749;28;20029;-64
2022/01/04 05:41:31;;;;;;;1.15;1.05;;;;;;;16.10;42.10;94001.50;5027911;28;20459;-64
2022/01/04 05:43:56;;;;;;;1.17;0.88;;;;;;;15.53;42.27;93928.41;5025733;28;20068;-64
2022/01/04 05:46:21;;;;;;;1.75;0.80;;;;;;;15.89;42.51;93977.88;5003076;28;20033;-64
2022/01/04 05:48:47;;;;;;;2.08;0.93;;;;;;;16.07;42.97;94021.78;5028946;28;20034;-65
2022/01/04 05:51:12;;;;;;;1.58;1.08;;;;;;;15.97;43.33;94017.06;5028516;28;20029;-63
2022/01/04 05:53:38;;;;;;;4.75;1.38;;;;;;;15.85;43.80;94010.00;5011978;28;20032;-67
2022/01/04 05:56:03;;;;;;;1.13;0.90;;;;;;;15.57;43.77;93966.75;5029015;28;20025;-62
2022/01/04 05:58:29;;;;;;;2.50;1.02;;;;;;;15.81;43.83;94019.13;5010563;28;20033;-67
2022/01/04 06:00:54;;;;;;;1.80;0.90;;;;;;;15.55;43.84;93975.13;5027464;28;20103;-65
2022/01/04 06:03:19;;;;;;;1.05;0.95;;;;;;;15.56;43.86;93974.00;5026741;28;20475;-62
2022/01/04 06:05:45;;;;;;;1.52;0.75;;;;;;;15.24;44.63;93946.78;5032574;28;20040;-66
2022/01/04 06:08:12;;;;;;;2.03;0.98;;;;;;;15.43;44.72;93972.69;5032247;28;20052;-64
2022/01/04 06:10:40;;;;;;;2.50;1.55;;;;;;;15.47;45.24;93989.59;5032265;28;20104;-62
2022/01/04 06:15:32;;;;;;;4.57;1.20;;;;;;;15.51;45.41;94011.06;5029741;28;20380;-63
2022/01/04 06:17:58;;;;;;;2.28;1.10;;;;;;;15.46;45.56;94009.47;5024082;28;20017;-64
2022/01/04 06:20:24;;;;;;;3.72;1.50;;;;;;;14.19;46.28;93832.41;5031428;28;20538;-61
2022/01/04 06:22:51;;;;;;;2.40;1.02;;;;;;;14.14;46.38;93805.97;5032214;28;20033;-64
2022/01/04 06:25:18;;;;;;;3.40;1.25;;;;;;;14.95;46.06;93918.84;5032380;28;20036;-62
2022/01/04 06:27:45;;;;;;;2.90;1.10;;;;;;;15.56;46.01;94029.53;5023403;28;20041;-63
2022/01/04 06:30:14;;;;;;;2.88;1.55;;;;;;;15.47;46.32;94008.34;5008005;28;20045;-63
2022/01/04 06:32:42;;;;;;;1.77;1.00;;;;;;;14.31;46.04;93808.91;5011262;28;20405;-64
2022/01/04 06:35:08;;;;;;;1.05;0.93;;;;;;;15.52;46.19;93988.50;5032241;28;20541;-65
2022/01/04 06:37:34;;;;;;;1.60;1.20;;;;;;;15.14;45.92;93925.19;5032022;28;20155;-64
2022/01/04 06:39:59;;;;;;;1.60;1.00;;;;;;;15.66;46.53;93991.41;5031446;28;20029;-65
2022/01/04 06:42:24;;;;;;;4.55;1.15;;;;;;;14.98;46.17;93920.78;5026251;28;20049;-64
2022/01/04 06:44:50;;;;;;;3.05;1.13;;;;;;;14.05;46.13;93774.88;5027606;28;20404;-64
2022/01/04 06:47:15;;;;;;;3.05;1.30;;;;;;;15.66;46.06;93993.28;5023735;28;20045;-63
2022/01/04 06:49:41;;;;;;;1.40;1.00;;;;;;;15.51;46.33;93939.50;5031027;28;20029;-61
2022/01/04 06:52:08;;;;;;;1.55;1.02;;;;;;;15.40;45.84;93914.44;5031424;28;20018;-61
2022/01/04 06:54:33;;;;;;;2.00;1.40;;;;;;;15.76;46.11;93963.16;5031718;28;20040;-62
2022/01/04 06:56:59;;;;;;;1.33;0.93;;;;;;;15.70;46.18;93960.03;5029726;28;20029;-61
2022/01/04 06:59:24;;;;;;;2.58;1.20;;;;;;;15.53;47.28;93929.16;5024681;28;20099;-62
2022/01/04 07:01:49;;;;;;;1.48;0.98;;;;;;;15.43;46.38;93929.81;5022011;28;20028;-64
2022/01/04 07:04:15;;;;;;;2.97;1.30;;;;;;;15.20;47.45;93908.47;5031830;28;20029;-63
2022/01/04 07:06:40;;;;;;;4.55;1.70;;;;;;;15.28;47.57;93914.69;5031741;28;20106;-63
2022/01/04 07:09:07;;;;;;;2.33;1.27;;;;;;;15.33;47.89;93933.88;5030981;28;20095;-63
2022/01/04 07:11:34;;;;;;;4.05;1.75;;;;;;;15.44;47.73;93982.25;5031517;28;20037;-62
2022/01/04 07:14:00;;;;;;;3.42;1.90;;;;;;;14.78;48.05;93863.13;5023340;28;20037;-63
2022/01/04 07:16:26;;;;;;;1.60;1.38;;;;;;;14.99;48.28;93884.06;5023485;28;20107;-63
2022/01/04 07:18:52;;;;;;;2.08;1.50;;;;;;;15.33;48.15;93925.06;5029498;28;20068;-63
2022/01/04 07:21:19;;;;;;;3.22;1.30;;;;;;;15.66;48.29;93956.56;5031167;28;20053;-62
2022/01/04 07:23:48;;;;;;;2.40;1.48;;;;;;;15.14;48.06;93856.31;5031194;28;20026;-62
2022/01/04 07:26:14;;;;;;;1.75;1.30;;;;;;;15.21;47.80;93859.13;5031130;28;20029;-62
2022/01/04 07:28:46;;;;;;;3.88;1.80;;;;;;;15.80;47.78;93937.16;5023317;28;20045;-62
2022/01/04 07:31:13;;;;;;;2.25;1.15;;;;;;;14.97;47.97;93812.13;5022340;28;20167;-62
2022/01/04 07:33:38;;;;;;;2.45;1.63;;;;;;;15.85;47.54;93926.09;5030914;28;20029;-61
2022/01/04 07:36:06;;;;;;;3.13;1.80;;;;;;;15.89;47.97;93913.53;5031071;28;20033;-62
2022/01/04 07:38:36;;;;;;;2.03;1.60;;;;;;;15.59;48.07;93879.47;5030678;28;20450;-63
2022/01/04 07:41:02;;;;;;;2.80;1.90;;;;;;;15.89;47.75;93902.03;5030560;28;20048;-63
2022/01/04 07:43:28;;;;;;;2.47;1.48;;;;;;;15.63;48.05;93854.63;5025097;28;20541;-63
2022/01/04 07:45:53;;;;;;;1.77;1.30;;;;;;;15.56;47.71;93850.72;5009247;28;20034;-63
2022/01/04 07:48:22;;;;;;;5.20;1.90;;;;;;;15.92;47.93;93887.88;5024231;28;20631;-64
2022/01/04 07:50:47;;;;;;;2.08;1.23;;;;;;;14.80;48.01;93695.66;5030466;28;20032;-64
2022/01/04 07:53:13;;;;;;;4.63;1.30;;;;;;;15.76;48.13;93848.63;5030761;28;20415;-63
2022/01/04 07:55:38;;;;;;;1.58;0.77;;;;;;;15.35;47.67;93762.03;5030541;28;20700;-64
2022/01/04 07:58:04;;;;;;;1.30;0.68;;;;;;;14.51;48.50;93642.94;5024863;28;20383;-62
2022/01/04 08:00:29;;;;;;;1.27;0.60;;;;;;;13.80;52.19;93741.66;5027394;28;20017;-62
2022/01/04 08:02:55;;;;;;;0.88;0.50;;;;;;;14.24;54.22;93864.19;5021836;28;20071;-62
2022/01/04 08:05:21;;;;;;;0.88;0.50;;;;;;;14.12;55.14;93808.22;5030401;28;20110;-62
2022/01/04 08:07:47;;;;;;;0.73;0.50;;;;;;;13.83;55.98;93826.47;5030320;28;20530;-62
2022/01/04 08:10:13;;;;;;;0.47;0.40;;;;;;;14.03;55.32;93785.19;5029453;28;20038;-62
2022/01/04 08:12:40;;;;;;;0.93;0.30;;;;;;;13.76;56.02;93775.56;5025411;28;20049;-63
2022/01/04 08:15:07;;;;;;;0.40;0.40;;;;;;;14.22;56.43;93799.56;5027533;28;20639;-62
2022/01/04 08:17:33;;;;;;;0.50;0.40;;;;;;;14.44;54.85;93742.59;5021482;28;20026;-61
2022/01/04 08:20:00;;;;;;;0.40;0.30;;;;;;;14.50;55.69;93788.56;5029494;28;20022;-63
2022/01/04 08:22:31;;;;;;;2.75;0.40;;;;;;;14.59;56.95;93812.38;5029639;28;20025;-63
2022/01/04 08:24:57;;;;;;;0.30;0.30;;;;;;;15.02;54.77;93797.66;5030377;28;20021;-63
2022/01/04 08:27:22;;;;;;;0.75;0.40;;;;;;;15.41;54.73;93794.66;5010238;28;20021;-63
2022/01/04 08:29:48;;;;;;;0.95;0.40;;;;;;;14.80;55.04;93746.53;5025684;28;20056;-63
2022/01/04 08:32:15;;;;;;;0.65;0.40;;;;;;;15.63;54.15;93785.72;5009999;28;20022;-62
2022/01/04 08:34:40;;;;;;;1.13;0.50;;;;;;;15.92;53.57;93751.91;5010012;28;20030;-62
2022/01/04 08:37:05;;;;;;;1.35;0.28;;;;;;;15.57;53.10;93718.25;5010008;28;20407;-62
2022/01/04 08:39:31;;;;;;;0.47;0.30;;;;;;;16.11;52.47;93759.69;5009347;28;20036;-63
2022/01/04 08:42:01;;;;;;;0.77;0.22;;;;;;;16.52;52.50;93773.00;5010139;28;20481;-62
2022/01/04 08:44:26;;;;;;;0.57;0.38;;;;;;;16.42;51.55;93701.25;5022742;28;20057;-63
2022/01/04 08:46:52;;;;;;;1.02;0.30;;;;;;;16.70;50.83;93724.03;5019847;28;20045;-64
2022/01/04 08:49:18;;;;;;;0.75;0.30;;;;;;;17.74;50.17;93778.91;5028865;28;20581;-65
2022/01/04 08:51:43;;;;;;;0.30;0.25;;;;;;;17.81;49.59;93752.78;5011999;28;20136;-64
2022/01/04 08:54:09;;;;;;;1.00;0.30;;;;;;;17.54;49.17;93679.75;5029618;28;20053;-63
2022/01/04 08:56:34;;;;;;;1.10;0.30;;;;;;;18.25;48.65;93735.47;5029431;28;20021;-63
2022/01/04 08:59:00;;;;;;;0.40;0.40;;;;;;;18.49;48.43;93757.38;5024554;28;20022;-65
2022/01/04 09:01:25;;;;;;;0.70;0.40;;;;;;;18.15;48.01;93710.09;5021660;28;20104;-63
2022/01/04 09:03:51;;;;;;;0.35;0.25;;;;;;;18.16;47.83;93673.19;5027833;28;20021;-63
2022/01/04 09:06:16;;;;;;;0.45;0.40;;;;;;;18.84;47.40;93743.09;5011635;28;20116;-65
2022/01/04 09:08:43;;;;;;;0.60;0.40;;;;;;;18.96;46.62;93743.41;5028984;28;20783;-63
2022/01/04 09:11:09;;;;;;;0.68;0.47;;;;;;;17.27;48.61;93662.44;5028837;28;20025;-63
2022/01/04 09:13:41;;;;;;;0.88;0.47;;;;;;;17.31;48.49;93727.72;5025851;28;20045;-63
2022/01/04 09:18:51;;;;;;;0.40;0.40;;;;;;;18.55;46.80;93748.50;5024870;28;20036;-63
2022/01/04 09:21:20;;;;;;;0.50;0.30;;;;;;;18.13;46.12;93677.44;5028908;28;20064;-64
2022/01/04 09:23:47;;;;;;;2.47;0.50;;;;;;;17.78;46.13;93666.72;5029307;28;20407;-64
2022/01/04 09:26:14;;;;;;;1.75;0.82;;;;;;;17.74;45.82;93660.56;5029307;28;20382;-64
2022/01/04 09:28:40;;;;;;;1.15;0.65;;;;;;;17.69;46.07;93648.25;5025599;28;20029;-64
2022/01/04 09:31:06;;;;;;;1.23;0.47;;;;;;;17.93;46.07;93679.78;5020320;28;20120;-63
2022/01/04 09:33:32;;;;;;;0.65;0.60;;;;;;;18.53;45.44;93721.22;5030594;28;20703;-63
2022/01/04 09:35:58;;;;;;;0.70;0.50;;;;;;;18.34;45.06;93697.41;5033272;28;20483;-63
2022/01/04 09:38:24;;;;;;;0.80;0.50;;;;;;;18.25;44.91;93689.72;5032976;28;20090;-63
2022/01/04 09:40:50;;;;;;;0.40;0.40;;;;;;;18.28;45.74;93731.25;5032638;28;20140;-64
2022/01/04 09:43:17;;;;;;;0.80;0.55;;;;;;;18.35;45.17;93693.56;5032129;28;20525;-63
2022/01/04 09:45:42;;;;;;;1.10;0.60;;;;;;;18.03;44.74;93664.00;5029131;28;20170;-63
2022/01/04 09:48:08;;;;;;;0.68;0.50;;;;;;;18.01;44.36;93613.25;5024335;28;20022;-63
2022/01/04 09:50:36;;;;;;;0.75;0.50;;;;;;;18.66;44.07;93692.69;5032627;28;20025;-63
2022/01/04 09:53:04;;;;;;;0.82;0.45;;;;;;;18.30;43.99;93673.19;5032761;28;20044;-64
2022/01/04 09:55:30;;;;;;;0.73;0.43;;;;;;;17.91;44.20;93687.47;5032767;28;20079;-63
2022/01/04 09:57:55;;;;;;;1.27;0.50;;;;;;;18.00;43.97;93646.69;5029785;28;20860;-62
2022/01/04 10:00:20;;;;;;;0.60;0.60;;;;;;;18.50;43.67;93681.59;5024653;28;20131;-62
2022/01/04 10:02:52;;;;;;;0.43;0.35;;;;;;;17.39;44.70;93624.44;5022955;28;20030;-63
2022/01/04 10:05:23;;;;;;;0.40;0.40;;;;;;;18.11;44.57;93668.97;5015108;28;20025;-62
2022/01/04 10:08:00;;;;;;;0.32;0.32;;;;;;;18.23;43.92;93616.69;5032799;28;20031;-62
2022/01/04 10:10:26;;;;;;;1.25;0.60;;;;;;;17.74;43.56;93561.84;5032367;28;20017;-63
2022/01/04 10:12:55;;;;;;;0.68;0.40;;;;;;;18.84;43.61;93681.88;5030923;28;20447;-63
2022/01/04 10:15:37;;;;;;;0.65;0.65;;;;;;;18.68;43.41;93624.97;5025073;28;20021;-63
2022/01/04 10:18:21;;;;;;;0.68;0.60;;;;;;;18.64;42.95;93584.59;5012758;28;20399;-63
2022/01/04 10:20:59;;;;;;;0.80;0.57;;;;;;;19.24;42.79;93666.25;5012177;28;20022;-63
2022/01/04 10:23:25;;;;;;;0.52;0.50;;;;;;;19.00;42.82;93627.53;5012766;28;20033;-63
2022/01/04 10:26:00;;;;;;;0.45;0.40;;;;;;;19.09;43.02;93659.41;5012572;28;20431;-63
2022/01/04 10:28:36;;;;;;;0.73;0.57;;;;;;;19.20;43.04;93655.53;5011960;28;20404;-62
2022/01/04 10:31:05;;;;;;;0.55;0.43;;;;;;;19.04;42.09;93566.31;5023726;28;20029;-63
2022/01/04 10:33:32;;;;;;;0.77;0.40;;;;;;;19.36;42.16;93632.69;5031873;28;20033;-63
2022/01/04 10:36:00;;;;;;;0.57;0.57;;;;;;;19.46;41.97;93635.31;5032076;28;20491;-63
2022/01/04 10:38:32;;;;;;;1.23;0.77;;;;;;;19.08;42.74;93620.94;5031662;28;20029;-63
2022/01/04 10:41:03;;;;;;;0.82;0.73;;;;;;;18.57;41.98;93511.16;5031509;28;20022;-63
2022/01/04 10:43:43;;;;;;;0.75;0.63;;;;;;;17.90;42.51;93448.44;5026308;28;20434;-63
2022/01/04 10:46:10;;;;;;;0.68;0.52;;;;;;;19.20;42.55;93622.41;5017061;28;20044;-63
2022/01/04 10:48:41;;;;;;;1.70;0.40;;;;;;;18.69;42.67;93524.19;5015826;28;20643;-62
2022/01/04 10:51:13;;;;;;;0.88;0.40;;;;;;;19.12;42.46;93621.69;5011850;28;20037;-63
2022/01/04 10:53:50;;;;;;;0.63;0.47;;;;;;;17.36;45.26;93566.09;5011880;28;20044;-62
2022/01/04 10:56:23;;;;;;;0.30;0.20;;;;;;;17.10;43.15;93424.84;5011956;28;20049;-63
2022/01/04 10:58:51;;;;;;;0.43;0.43;;;;;;;15.94;45.20;93355.41;5012667;28;20495;-62
2022/01/04 11:01:27;;;;;;;0.47;0.40;;;;;;;17.33;44.82;93556.84;5028892;28;20512;-63
2022/01/04 11:04:01;;;;;;;0.80;0.50;;;;;;;17.96;44.36;93608.28;5023310;28;20022;-63
2022/01/04 11:06:33;;;;;;;0.45;0.40;;;;;;;17.73;42.85;93473.50;5013987;28;20114;-63
2022/01/04 11:08:59;;;;;;;0.52;0.40;;;;;;;17.80;43.91;93603.31;5030847;28;20048;-64
2022/01/04 11:11:25;;;;;;;0.73;0.52;;;;;;;18.01;43.80;93593.66;5031400;28;20473;-64
2022/01/04 11:13:52;;;;;;;0.30;0.30;;;;;;;17.58;43.68;93489.63;5025111;28;20034;-63
2022/01/04 11:16:25;;;;;;;1.13;1.00;;;;;;;18.02;43.14;93536.78;5028663;28;20022;-64
2022/01/04 11:18:54;;;;;;;0.55;0.35;;;;;;;17.61;43.66;93544.56;5022807;28;20025;-63
2022/01/04 11:21:31;;;;;;;0.40;0.40;;;;;;;18.13;43.13;93587.88;5031043;28;20109;-63
2022/01/04 11:24:01;;;;;;;0.73;0.52;;;;;;;17.99;42.69;93526.81;5031139;28;20088;-64
2022/01/04 11:26:27;;;;;;;0.65;0.40;;;;;;;18.98;41.16;93519.38;5031210;28;20430;-63
2022/01/04 11:28:53;;;;;;;0.40;0.40;;;;;;;17.99;42.50;93485.69;5025209;28;20026;-63
2022/01/04 11:31:41;;;;;;;1.00;0.60;;;;;;;19.32;40.48;93551.84;5022373;28;20075;-63
2022/01/04 11:34:09;;;;;;;6.45;0.30;;;;;;;18.53;40.94;93486.16;5031264;28;20038;-63
2022/01/04 11:36:42;;;;;;;0.43;0.40;;;;;;;19.65;39.40;93512.66;5013258;28;20160;-63
2022/01/04 11:39:27;;;;;;;0.50;0.40;;;;;;;19.07;40.64;93537.78;5012667;28;20037;-63